This is the latest recevied weather packets stored in our database for station/object DL5TW-13. If no packets are shown the sender has not sent any weather packets the latest 10 day(s).
| Time | Temp. | Humidity | Pressure | Rain* | Wind** | Luminosity | Snow |
|---|---|---|---|---|---|---|---|
| 1777916934 | 14.44° C | 74% | 1008.1 hPa | 0 mm | - | - | - |
| 1777916633 | 13.89° C | 75% | 1008.1 hPa | 0 mm | - | - | - |
| 1777916333 | 13.89° C | 75% | 1008.1 hPa | 0 mm | - | - | - |
| 1777916033 | 13.89° C | 74% | 1008 hPa | 0 mm | - | - | - |
| 1777915733 | 13.89° C | 72% | 1008 hPa | 0 mm | - | - | - |
| 1777915432 | 13.89° C | 71% | 1007.9 hPa | 0 mm | - | - | - |
| 1777915132 | 14.44° C | 71% | 1008 hPa | 0 mm | - | - | - |
| 1777914832 | 14.44° C | 69% | 1008 hPa | 0 mm | - | - | - |
| 1777914531 | 14.44° C | 68% | 1008 hPa | 0 mm | - | - | - |
| 1777914231 | 15° C | 67% | 1007.9 hPa | 0 mm | - | - | - |
| 1777913931 | 15.56° C | 64% | 1007.6 hPa | 0 mm | - | - | - |
| 1777913631 | 16.67° C | 61% | 1007.7 hPa | 0 mm | - | - | - |
| 1777913330 | 17.78° C | 58% | 1007.6 hPa | 0 mm | - | - | - |
| 1777913030 | 20° C | 51% | 1007.7 hPa | 0 mm | - | - | - |
| 1777912730 | 21.11° C | 50% | 1007.6 hPa | 0 mm | - | - | - |
| 1777912429 | 21.67° C | 48% | 1007.4 hPa | 0 mm | - | - | - |
| 1777912129 | 21.67° C | 47% | 1007.4 hPa | 0 mm | - | - | - |
| 1777911829 | 22.22° C | 47% | 1007.3 hPa | 0 mm | - | - | - |
| 1777911529 | 22.22° C | 47% | 1007.2 hPa | 0 mm | - | - | - |
| 1777911228 | 22.22° C | 47% | 1007.2 hPa | 0 mm | - | - | - |
| 1777910928 | 22.78° C | 46% | 1007.2 hPa | 0 mm | - | - | - |
| 1777910628 | 22.78° C | 46% | 1007.4 hPa | 0 mm | - | - | - |
| 1777910327 | 22.78° C | 46% | 1007.3 hPa | 0 mm | - | - | - |
| 1777910027 | 22.78° C | 46% | 1007.3 hPa | 0 mm | - | - | - |
| 1777909727 | 22.78° C | 46% | 1007.4 hPa | 0 mm | - | - | - |
* Rain latest hour (hover to see other rain measurements)
** Current wind speed in m/s (hover to see current wind gust speed)